Hinojosa Del Duque, España

1:52 AM CEST en Julio 23, 2014 (GMT +0200)
Cordoba (LEBA) Alt 302 ft | 37.84 °N, 4.85 °W | Change Station
Aviso en curso: Extreme high temperature

Current weather conditions updated 2 days ago

Clear
73 ° F
Sensación térmica 73 ° F
N
2
Viento Variable Viento desde ENE
Gusts mph

Hoy se prevé un día Mucho más cálido que ayer.

Hoy
Alta -- | Baja -- ° F
--% Posibilidad de precipitaciones
Ayer
Alta -- | Baja -- ° F
Precip. -- pul
7:14 AM 9:38 PM
Creciente menguante, 14% visible
Presión 30.04 pul
Visibilidad 6.2 Millas
Nubes Baja 2000 ft
Punto de rocío 41 ° F
Humedad 29%
Precipitaciones 0.00 pul
Espesor de la nieve No disponible.
UV 12 de una escala de 12
Polen No disponible.
Calidad del aire No disponible.
Flu Activity No disponible.
SPECI LEBA 201309Z 27010KT 240V320 9999 FEW020 31/05 Q1017

More Conditions Fewer Conditions

Presión 30.04 pul
Visibilidad 6.2 Millas
Nubes Baja 2000 ft
Punto de rocío 41 ° F
Humedad 29%
Precipitaciones 0.00 pul
Espesor de la nieve No disponible.
UV 12 de una escala de 12
Polen No disponible.
Calidad del aire No disponible.
Flu Activity No disponible.
SPECI LEBA 201309Z 27010KT 240V320 9999 FEW020 31/05 Q1017

More Conditions Fewer Conditions

10-Day Weather Forecast

Almanac

Astronomía

Jul. 23, 2014 Salida Puesta
Hora real 7:14 AM CEST 9:38 PM CEST
Crepúsculo civil 6:44 AM CEST 10:09 PM CEST
Crepúsculo náutico 6:06 AM CEST 10:46 PM CEST
Crepúsculo astronómico 5:25 AM CEST 11:27 PM CEST
Luna 4:22 AM CEST (7/23) 6:56 PM CEST (7/23)
Horas de luz 15h 24m
Horas de luz
14h 24m
Tomorrow will be 1m 36s shorter.
Creciente menguante, 14% of the Moon is Illuminated
Jul 22
Creciente menguante
Jul 26
Nueva
Ago 3
Cuarto creciente
Ago 10
Luna llena
Ago 17
Cuarto menguante

Extremos de ayer

Máximos del país Bajas del país

Community

WunderPhotos

Upload Photos

1,736,391 ¡fotos cargadas!

Nearby

Calidad del aire

Not available.

Grosos de nieve

Not available.

Actividad de terremotos

Ciudad Distance Mag. Tiempo y dato
No hay informes recientes de la actividad sísmica.
Magnitud mínima muestra es 2,5.

Temperaturas de aguas costeras

Lugar Temperatura
Sin partes meteorológicos de las estaciones

Estaciones meteorológicas cercanas

No hay estaciones meteorológicas personales en esta zona.